Date,TemperatureHighF,TemperatureAvgF,TemperatureLowF,DewpointHighF,DewpointAvgF,DewpointLowF,HumidityHigh,HumidityAvg,HumidityLow,PressureMaxIn,PressureMinIn,WindSpeedMaxMPH,WindSpeedAvgMPH,GustSpeedMaxMPH,PrecipitationSumIn
2013-1-1,44.5,42.5,40.1,35.8,30.5,25.8,77,63,48,29.95,29.84,5,0,11,0.00
2013-1-2,39.9,35.0,30.4,31.6,22.7,16.6,72,61,50,30.18,29.94,7,1,13,0.00
2013-1-3,35.5,30.5,27.3,23.9,19.5,16.3,81,64,49,30.21,30.11,6,0,8,0.00
2013-1-4,42.2,36.6,25.7,26.3,24.3,21.8,91,62,49,30.16,30.04,14,2,21,0.00
2013-1-5,41.5,36.6,29.5,28.6,24.8,21.5,74,62,50,30.33,30.10,13,1,17,0.00
2013-1-6,49.1,41.8,34.0,37.0,32.0,28.7,91,69,46,30.17,29.97,6,0,10,0.00
2013-1-7,46.7,39.4,28.7,35.2,31.1,25.9,90,73,49,30.39,30.07,11,1,13,0.00
2013-1-8,52.2,42.1,29.1,37.8,34.1,26.5,97,75,53,30.40,30.32,11,0,14,0.00
2013-1-9,59.5,46.9,33.1,48.4,41.2,31.9,97,81,62,30.34,30.17,7,0,10,0.00
2013-1-10,51.7,45.7,40.2,39.9,32.7,30.5,77,61,45,30.53,30.31,10,1,18,0.00
2013-1-11,51.9,43.0,34.1,50.8,39.7,30.3,99,88,71,30.45,30.04,5,0,10,0.09
2013-1-12,47.9,44.4,42.3,47.0,44.0,42.0,100,98,94,30.11,30.04,6,0,8,0.00
2013-1-13,52.8,46.5,40.5,52.8,46.5,40.5,100,100,99,30.09,29.95,7,1,12,0.01
2013-1-14,60.7,53.9,42.9,60.1,51.2,37.9,100,91,68,30.20,29.91,8,1,13,0.09
2013-1-15,42.8,40.1,37.3,41.3,39.4,36.5,98,97,91,30.28,30.09,7,1,10,0.73
2013-1-16,41.9,38.9,35.6,41.4,38.2,35.1,98,97,95,30.08,29.80,13,1,13,0.41
2013-1-17,42.8,40.2,35.0,42.8,39.3,33.5,100,97,86,30.08,29.92,2,0,6,0.40
2013-1-18,39.2,34.7,27.8,34.4,23.8,14.5,95,66,43,30.47,29.98,16,2,18,0.00
2013-1-19,49.4,40.3,29.8,35.4,30.0,23.2,77,67,51,30.41,29.97,11,2,16,0.00
2013-1-20,58.4,47.4,40.1,35.5,30.1,20.3,65,51,38,30.01,29.77,10,2,18,0.00
2013-1-21,44.9,36.8,28.8,36.8,24.4,18.0,83,61,44,30.07,29.72,16,2,19,0.00
2013-1-22,33.1,24.2,20.2,19.1,5.3,-1.3,59,44,33,30.25,29.85,20,6,28,0.00
2013-1-23,25.8,22.3,18.6,10.1,5.3,1.0,57,48,35,30.31,30.13,16,3,20,0.00
2013-1-24,26.0,22.1,16.7,16.4,10.7,3.9,89,63,39,30.46,30.04,16,3,20,0.01
2013-1-25,25.7,22.7,18.8,20.3,11.0,4.8,91,62,42,30.46,30.04,4,1,12,0.00
2013-1-26,32.8,27.9,19.4,22.8,20.0,17.0,90,72,59,30.39,30.04,6,1,16,0.05
2013-1-27,34.3,28.0,20.6,23.6,18.9,11.1,85,69,44,30.56,30.39,4,0,10,0.00
2013-1-28,47.0,36.6,28.1,43.0,33.2,23.9,96,87,80,30.48,30.00,4,1,14,0.08
2013-1-29,66.3,51.5,39.5,52.7,45.9,38.2,97,82,60,30.08,29.97,6,1,14,0.00
2013-1-30,68.8,58.3,49.6,60.5,54.4,47.1,98,87,73,29.96,29.31,22,5,25,0.00
2013-1-31,60.5,46.6,32.4,58.4,32.7,17.0,97,60,31,29.89,29.12,20,6,28,0.52
2013-2-1,33.1,28.8,23.0,30.9,15.6,6.7,94,59,41,30.33,29.77,24,5,29,0.00
2013-2-2,31.5,26.7,20.5,26.8,14.0,6.7,92,60,35,30.34,29.96,12,2,17,0.00
2013-2-3,34.9,30.0,24.2,29.4,25.8,23.0,97,85,63,29.95,29.79,9,0,17,0.02
2013-2-4,37.9,31.6,26.6,31.3,19.4,12.7,81,61,49,30.08,29.87,17,2,31,0.00
2013-2-5,45.8,38.3,30.7,32.8,30.0,28.1,91,72,54,29.88,29.80,6,0,7,0.00
2013-2-6,44.9,35.6,27.5,36.3,28.8,23.6,99,78,53,30.30,29.87,8,0,12,0.00
2013-2-7,40.9,34.2,25.1,31.9,27.2,22.7,93,76,57,30.41,30.15,8,2,11,0.00
2013-2-8,42.8,38.9,35.3,42.5,37.0,26.9,99,93,66,30.14,29.61,18,2,26,0.47
2013-2-9,37.8,34.2,30.1,26.9,21.8,18.7,68,60,51,30.31,29.81,31,6,31,0.00
2013-2-10,40.8,33.1,25.4,32.1,19.3,8.6,83,58,27,30.45,30.24,7,1,11,0.00
2013-2-11,55.9,48.8,36.8,53.8,46.6,32.1,100,92,76,30.23,29.67,8,2,16,0.17
2013-2-12,53.8,46.9,40.8,46.0,33.5,28.5,85,61,38,29.95,29.72,11,1,13,0.00
2013-2-13,46.4,40.0,35.2,39.9,33.9,27.9,97,80,65,29.90,29.58,10,2,14,0.26
2013-2-14,46.2,38.9,33.1,35.8,32.9,28.9,97,80,52,29.99,29.69,11,1,11,0.00
2013-2-15,56.6,42.6,31.9,41.1,36.3,30.8,98,80,52,30.00,29.85,8,1,13,0.00
2013-2-16,40.1,36.2,33.4,35.7,32.8,20.6,95,88,58,29.95,29.73,8,1,12,0.08
2013-2-17,33.8,30.6,26.7,21.9,14.6,8.5,67,52,39,30.13,29.73,20,7,27,0.01
2013-2-18,39.2,30.5,24.1,28.4,13.9,8.3,77,51,28,30.35,30.14,19,4,28,0.00
2013-2-19,47.0,41.5,34.9,45.6,36.3,27.0,96,82,66,30.16,29.69,11,3,13,0.04
2013-2-20,40.8,34.8,27.9,32.9,20.4,12.0,76,56,45,30.09,29.79,22,5,28,0.00
2013-2-21,37.0,31.2,26.1,22.3,17.2,13.0,61,56,47,30.25,30.08,17,5,25,0.00
2013-2-22,36.5,33.1,29.1,34.5,24.9,18.7,95,72,60,30.35,30.17,8,1,11,0.01
2013-2-23,45.1,40.7,35.8,45.1,40.6,34.5,100,99,95,30.16,29.73,7,0,8,0.14
2013-2-24,49.1,42.0,35.2,43.8,35.4,23.5,100,80,50,30.02,29.72,13,2,16,0.01
2013-2-25,43.6,36.7,30.9,29.8,26.3,23.2,88,66,52,30.18,30.03,12,2,13,0.00
2013-2-26,52.5,40.2,28.2,52.2,37.2,26.4,99,89,76,30.18,29.52,17,4,22,0.57
2013-2-27,54.2,49.7,43.2,52.8,45.0,39.1,100,85,60,29.64,29.43,11,1,18,0.03
2013-2-28,48.3,42.7,37.6,40.9,34.9,28.6,93,75,48,29.67,29.56,8,1,13,0.13
2013-3-1,44.8,41.5,39.6,34.4,32.4,29.9,78,70,61,29.80,29.65,11,2,14,0.00
2013-3-2,39.5,36.5,33.4,29.5,25.6,22.5,72,64,57,29.81,29.74,14,5,18,0.00
2013-3-3,38.3,34.7,31.6,24.9,22.9,19.7,71,62,54,29.84,29.73,14,5,20,0.00
2013-3-4,40.6,35.7,29.8,27.8,22.4,18.2,66,58,49,29.97,29.84,18,5,22,0.00
2013-3-5,45.7,38.9,32.8,29.9,24.3,17.7,72,57,33,30.03,29.76,11,2,12,0.00
2013-3-6,42.1,38.4,35.0,40.0,36.2,29.4,95,92,71,29.84,29.42,21,7,26,1.37
2013-3-7,47.0,42.0,38.0,32.3,30.0,27.6,76,63,51,30.05,29.85,16,3,18,0.00
2013-3-8,44.5,41.0,36.6,31.6,28.1,24.5,70,60,53,30.17,30.03,17,3,24,0.00
2013-3-9,53.3,42.6,34.9,33.4,28.8,26.0,81,59,35,30.26,30.16,8,2,11,0.00
2013-3-10,60.7,44.3,29.1,39.2,31.8,22.6,96,67,25,30.29,30.20,7,1,10,0.00
2013-3-11,60.4,49.9,38.2,50.2,45.0,37.7,100,85,68,30.22,29.95,14,3,16,0.00
2013-3-12,57.6,53.0,43.1,57.3,49.2,34.3,99,87,68,29.92,29.66,14,4,22,0.68
2013-3-13,51.0,42.9,32.8,35.4,31.3,22.3,94,65,46,29.99,29.83,16,2,28,0.00
2013-3-14,44.8,38.9,33.7,24.7,20.8,17.7,60,48,34,30.06,29.95,17,6,25,0.00
2013-3-15,52.3,43.7,32.9,35.7,27.1,19.7,76,53,31,30.04,29.74,13,2,16,0.00
2013-3-16,57.8,46.5,37.3,47.3,38.2,33.5,88,74,52,29.84,29.58,10,1,16,0.00
2013-3-17,41.2,38.1,36.2,34.5,31.4,27.9,90,77,63,30.22,29.84,9,1,11,0.00
2013-3-18,41.8,38.0,32.2,41.3,33.4,22.2,99,84,55,30.28,29.80,11,3,16,0.25
2013-3-19,56.6,45.3,38.8,43.4,37.9,21.3,100,79,34,29.84,29.67,9,1,14,0.02
2013-3-20,52.8,44.8,38.6,34.5,22.4,15.3,74,42,24,29.95,29.72,15,3,19,0.00
2013-3-21,43.5,36.2,31.8,35.2,21.8,11.5,79,57,37,29.84,29.67,20,4,21,0.00
2013-3-22,45.5,37.0,30.1,25.6,19.4,13.9,61,49,35,29.94,29.83,13,3,21,0.00
2013-3-23,50.5,40.8,30.1,32.2,26.4,22.2,74,57,39,29.98,29.85,12,2,14,0.00
2013-3-24,42.8,36.6,29.3,32.7,26.1,22.2,95,67,47,29.95,29.61,8,1,13,0.04
2013-3-25,36.6,34.6,32.8,35.6,33.7,32.1,98,96,92,29.62,29.42,11,2,13,0.50
2013-3-26,48.6,41.2,34.9,36.3,33.5,29.2,95,75,49,29.90,29.62,11,2,14,0.00
2013-3-27,49.9,43.8,39.6,34.7,32.0,29.3,74,63,49,30.03,29.90,16,3,21,0.00
2013-3-28,47.6,43.6,37.8,35.7,32.2,29.3,74,64,51,30.14,30.02,12,3,18,0.00
2013-3-29,54.2,46.0,38.3,35.5,32.5,29.3,78,61,39,30.18,30.08,12,2,14,0.00
2013-3-30,58.1,46.5,34.3,41.2,32.1,26.1,94,62,30,30.16,30.06,7,0,8,0.00
2013-3-31,59.5,49.8,42.6,52.0,44.3,36.2,97,82,56,30.09,29.69,17,2,21,0.08
2013-4-1,67.3,52.9,44.1,53.1,42.8,25.4,100,72,38,29.89,29.63,17,2,20,0.02
2013-4-2,49.1,43.9,38.5,27.6,21.5,16.5,52,41,28,30.10,29.90,11,3,18,0.00
2013-4-3,50.5,43.8,37.5,25.4,20.3,16.1,52,39,27,30.30,30.11,13,3,19,0.00
2013-4-4,49.8,40.7,33.7,36.7,23.1,13.9,94,51,27,30.36,30.06,7,1,10,0.16
2013-4-5,61.2,47.3,37.8,42.5,36.7,25.4,98,72,26,30.06,29.76,11,1,14,0.71
2013-4-6,52.6,46.4,39.9,33.1,28.5,21.4,72,50,37,30.27,29.95,9,2,11,0.00
2013-4-7,63.1,51.0,37.9,47.4,40.6,31.9,91,69,46,30.26,29.95,16,3,20,0.00
2013-4-8,75.8,63.7,51.9,55.4,50.6,45.2,84,64,42,30.03,29.92,13,2,13,0.00
2013-4-9,83.4,71.5,58.6,56.9,54.5,51.8,80,57,37,30.02,29.90,10,2,13,0.00
2013-4-10,88.4,75.7,62.7,60.8,57.2,54.4,79,55,34,29.92,29.74,7,1,16,0.00
2013-4-11,82.4,68.0,51.4,64.3,57.7,50.3,96,71,51,29.82,29.72,14,2,17,0.00
2013-4-12,75.6,60.5,50.7,68.2,58.5,49.9,100,94,69,29.78,29.52,11,3,19,0.26
2013-4-13,58.9,57.8,56.2,43.4,42.2,41.1,62,56,53,29.88,29.87,5,1,7,0.00
2013-4-14,65.8,55.5,42.2,51.7,44.4,37.2,99,70,36,30.08,29.88,5,1,12,0.00
2013-4-15,60.9,56.5,53.3,49.4,47.5,45.0,86,72,58,30.24,30.07,6,2,16,0.00
2013-4-16,70.9,61.7,51.7,57.8,53.1,47.5,88,74,59,30.25,30.10,8,2,18,0.00
2013-4-17,76.3,65.0,59.2,64.6,59.0,55.2,95,81,59,30.15,30.07,8,1,12,0.00
2013-4-18,75.3,65.0,57.8,63.5,58.2,55.2,97,80,55,30.19,30.01,8,3,24,0.03
2013-4-19,78.6,68.9,62.4,66.9,63.5,59.6,97,84,64,30.00,29.60,8,4,26,0.44
2013-4-20,65.6,54.6,49.9,64.7,38.9,30.1,97,58,33,30.23,29.68,10,3,25,0.47
2013-4-21,54.1,48.0,41.5,34.7,29.4,23.2,58,49,37,30.53,30.23,8,2,13,0.00
2013-5-1,65.5,56.2,48.5,50.7,45.7,36.1,94,71,35,30.37,30.19,9,4,18,0.00
2013-5-2,66.4,55.7,48.3,52.8,47.3,39.8,96,76,42,30.38,30.26,6,2,13,0.00
2013-5-3,59.9,53.9,47.4,47.6,44.0,40.4,92,70,50,30.32,30.25,8,4,18,0.00
2013-5-4,64.7,54.4,47.4,49.7,43.6,36.8,91,69,39,30.28,30.14,10,4,19,0.00
2013-5-5,61.8,52.0,44.8,49.1,44.1,40.8,89,75,60,30.19,30.10,6,4,14,0.00
2013-5-6,61.6,54.9,48.6,57.1,52.6,45.8,98,92,83,30.13,30.01,7,4,14,0.00
2013-5-7,63.9,59.0,55.6,62.5,58.3,55.0,100,98,90,30.02,29.87,8,5,14,0.85
2013-5-8,60.2,57.7,55.4,56.9,56.1,54.3,96,94,92,29.93,29.89,4,0,7,0.00
2013-5-9,74.9,63.1,54.7,61.2,57.9,54.4,100,85,56,29.94,29.86,6,1,13,0.08
2013-5-10,83.4,66.9,56.2,63.9,58.8,55.7,99,79,40,29.96,29.87,8,0,12,0.00
2013-5-11,79.2,70.9,64.3,71.2,64.4,60.3,97,81,61,29.87,29.65,6,1,16,0.20
2013-5-12,65.6,62.3,57.5,62.1,46.8,32.5,96,60,33,29.95,29.66,8,3,22,0.08
2013-5-13,60.5,55.9,49.8,35.8,31.7,26.9,51,40,29,30.08,29.95,8,3,22,0.00
2013-5-14,62.7,52.3,45.5,38.8,34.1,30.4,64,51,34,30.15,30.03,10,1,14,0.00
2013-5-15,79.2,64.1,54.8,63.3,52.6,44.5,86,67,52,30.03,29.67,8,2,14,0.00
2013-5-16,84.0,76.3,69.4,66.6,62.0,58.6,76,62,46,29.83,29.68,4,1,14,0.00
2013-5-17,80.3,71.0,58.9,61.2,51.5,40.2,94,55,27,30.10,29.84,4,1,11,0.00
2013-5-18,65.6,61.1,59.3,60.0,55.9,49.1,97,84,65,30.18,30.10,5,2,12,0.08
2013-5-19,76.5,67.8,60.9,68.2,64.2,60.0,97,89,69,30.15,30.04,4,1,7,0.00
2013-5-20,82.6,72.3,66.4,70.1,67.7,65.5,98,86,64,30.07,29.94,4,0,11,0.01
2013-5-21,81.8,73.3,67.3,70.3,68.0,65.8,96,84,66,29.95,29.84,9,0,10,0.00
2013-5-22,82.6,75.0,69.8,72.1,69.5,67.8,96,84,69,29.90,29.81,13,1,13,0.00
2013-5-23,78.5,74.4,70.9,70.4,68.4,66.7,87,82,73,29.87,29.75,10,2,18,0.00
2013-5-24,69.1,59.9,52.9,67.3,53.7,39.4,97,81,60,30.04,29.68,12,4,30,0.11
2013-5-25,65.3,56.9,49.4,44.8,39.9,36.9,68,54,37,30.08,30.00,18,5,22,0.00
2013-5-26,71.1,60.2,52.5,48.2,42.0,37.8,76,52,34,30.15,30.07,12,3,19,0.00
2013-5-27,72.5,62.1,47.6,55.8,49.6,43.5,95,66,37,30.22,30.13,4,0,6,0.00
2013-5-28,82.8,70.9,61.8,68.1,62.1,55.8,97,75,60,30.15,30.02,10,1,17,0.22
2013-5-29,88.8,75.2,66.6,71.2,67.2,64.6,97,78,49,30.08,30.02,6,0,12,0.00
2013-5-30,89.3,79.1,69.4,71.6,68.1,64.7,86,70,50,30.13,30.06,5,0,8,0.00
2013-5-31,88.4,78.6,66.6,70.8,68.4,65.7,97,73,52,30.11,29.99,11,1,13,0.00
2013-6-1,89.9,81.1,71.1,72.4,70.2,68.0,90,71,52,30.01,29.89,7,1,16,0.00
2013-6-2,88.4,78.4,71.1,72.1,69.3,67.6,94,75,55,29.90,29.79,17,1,19,0.04
2013-6-3,78.6,71.9,68.9,71.0,68.5,65.8,99,90,67,29.86,29.74,7,0,11,0.11
2013-6-4,75.1,68.8,57.5,68.3,53.8,45.2,93,61,38,30.05,29.86,11,1,12,0.00
2013-6-5,79.8,68.2,54.5,63.8,56.0,50.0,97,68,38,30.11,30.02,9,1,12,0.00
2013-6-6,77.2,68.8,59.8,65.6,60.3,55.7,92,75,57,30.05,29.83,8,2,16,0.01
2013-6-7,72.7,70.0,67.3,72.4,69.1,65.6,100,97,88,29.82,29.46,12,1,20,4.14
2013-6-8,77.9,70.0,66.0,67.8,65.7,63.2,99,87,66,30.02,29.58,16,1,18,0.07
2013-6-9,84.5,73.3,63.4,71.3,67.0,63.1,100,82,54,30.13,30.02,6,0,11,0.00
2013-6-10,82.2,74.6,68.8,74.4,71.8,66.1,99,91,76,30.05,29.77,13,1,18,0.69
2013-6-11,84.0,75.8,69.9,71.4,68.1,64.6,98,79,55,29.78,29.70,11,1,15,0.00
2013-6-12,86.7,78.0,70.4,73.3,67.4,63.8,83,70,57,29.80,29.73,9,1,12,0.00
2013-6-13,89.3,76.1,69.8,75.3,69.1,60.5,96,80,54,29.75,29.41,26,2,26,0.17
2013-6-14,75.8,67.5,59.9,61.2,58.0,54.5,91,73,50,29.89,29.49,14,2,20,0.00
2013-6-15,82.8,74.3,63.1,65.6,61.7,57.7,92,67,43,30.01,29.89,7,1,10,0.00
2013-6-16,84.7,74.7,66.4,70.1,66.8,64.5,98,78,56,29.96,29.82,10,1,12,0.00
2013-6-17,86.3,77.2,70.9,73.1,71.0,67.7,97,83,55,29.91,29.83,3,0,10,0.00
2013-6-18,77.9,70.9,64.3,73.4,69.1,63.4,98,94,85,29.87,29.73,8,1,12,1.64
2013-6-19,76.0,69.3,64.0,65.9,64.0,60.2,98,84,67,30.10,29.80,0,0,0,0.00
2013-6-20,80.5,70.1,57.3,61.8,56.9,51.2,99,66,42,30.22,30.11,0,0,0,0.00
2013-6-21,82.8,69.9,55.7,67.1,60.5,53.2,99,74,53,30.24,30.18,0,0,0,0.00
2013-6-22,86.3,74.0,60.2,69.3,64.1,59.3,99,73,47,30.20,30.10,0,0,0,0.00
2013-6-23,83.2,75.8,69.4,75.1,70.2,62.9,96,83,73,30.13,30.02,0,0,0,0.05
2013-6-24,90.7,78.8,71.3,76.3,73.0,67.6,97,84,57,30.07,29.96,0,0,0,0.31
2013-6-25,90.5,80.2,69.9,77.1,72.7,69.5,100,80,54,29.99,29.84,0,0,0,0.01
2013-6-26,91.2,81.0,71.1,78.0,72.3,65.2,90,76,61,29.90,29.73,11,0,12,0.00
2013-6-27,85.5,78.5,70.9,75.4,72.0,68.3,93,81,70,29.77,29.56,14,1,14,0.03
2013-6-28,88.2,78.0,69.1,74.1,71.9,68.3,98,83,59,29.58,29.44,12,1,17,0.94
2013-6-29,87.6,77.0,68.6,74.8,71.5,67.2,100,85,54,29.65,29.47,8,1,11,0.01
2013-6-30,85.3,78.9,75.6,76.0,74.4,72.9,97,86,72,29.81,29.65,6,1,11,0.00
2013-7-1,80.1,76.3,72.8,76.5,74.0,71.9,99,93,85,29.96,29.80,11,0,11,0.65
2013-7-2,84.3,76.3,72.5,75.7,73.2,71.3,98,91,74,30.14,29.96,6,0,13,0.49
2013-7-3,88.0,79.3,73.2,76.7,74.4,72.4,98,86,66,30.19,30.13,8,0,12,0.00
2013-7-4,88.2,81.0,75.4,75.4,74.0,72.2,95,80,63,30.23,30.14,7,1,13,0.00
2013-7-5,88.4,81.9,74.2,75.7,74.2,71.4,92,78,63,30.19,30.08,9,0,14,0.00
2013-7-6,91.2,83.0,76.7,77.6,75.1,71.2,94,78,59,30.13,30.02,7,0,11,0.00
2013-7-7,91.2,82.9,75.4,76.8,73.8,70.2,90,75,59,30.06,29.94,12,1,12,0.00
2013-7-8,86.1,78.1,73.5,73.9,71.8,69.6,94,82,59,30.05,29.98,10,0,10,0.00
2013-7-9,88.8,79.8,74.6,76.3,74.0,71.5,93,83,60,30.05,29.95,3,0,7,0.00
2013-7-10,89.7,81.3,74.6,78.0,75.0,70.8,92,82,66,29.97,29.80,7,0,11,0.01
2013-7-11,76.3,74.2,73.2,75.1,72.8,70.8,99,95,88,29.85,29.79,6,0,8,0.29
2013-7-12,74.2,72.3,69.9,73.6,71.3,69.3,99,97,92,29.94,29.81,5,1,13,0.92
2013-7-13,87.2,77.3,69.4,76.7,72.7,69.1,100,87,66,30.22,29.94,8,0,10,0.00
2013-7-14,89.9,80.3,74.4,77.7,74.5,71.4,100,84,56,30.28,30.22,7,0,9,0.00
2013-7-15,92.5,82.2,72.8,78.9,74.9,71.9,99,80,56,30.25,30.11,7,0,8,0.00
2013-7-16,92.3,85.1,77.4,77.9,74.9,70.4,93,73,49,30.14,30.08,7,0,11,0.00
2013-7-17,93.4,84.7,74.4,79.3,75.6,72.9,99,76,53,30.13,30.03,7,0,8,0.00
2013-7-18,94.5,85.3,76.5,81.6,77.3,74.6,95,78,55,30.05,29.94,6,0,7,0.00
2013-7-19,94.3,87.1,78.5,79.8,77.5,74.8,93,74,54,29.96,29.81,7,0,12,0.00
2013-7-20,92.5,84.9,80.5,79.3,76.2,73.2,85,76,59,29.84,29.74,7,1,18,0.00
2013-7-21,81.2,80.1,79.4,76.3,75.3,74.2,87,85,84,29.83,29.81,0,0,5,0.00
2013-7-22,89.5,81.0,72.8,76.7,74.5,71.9,98,82,62,29.86,29.71,7,0,11,0.00
2013-7-23,87.6,81.2,74.6,76.4,73.4,69.2,94,78,58,29.71,29.58,10,1,12,0.00
2013-7-24,84.9,78.9,72.5,73.3,69.6,65.1,93,74,60,29.82,29.61,8,0,12,0.00
2013-7-25,75.8,70.1,64.3,66.5,61.3,56.0,79,74,67,29.94,29.81,7,1,10,0.00
2013-7-26,83.2,72.7,65.5,67.4,63.0,58.6,90,73,46,30.02,29.94,7,0,12,0.00
2013-7-27,85.1,76.3,68.3,72.2,68.1,64.1,99,78,53,30.01,29.88,6,0,11,0.00
2013-7-28,87.2,78.2,70.6,75.0,70.9,66.5,96,79,58,29.90,29.81,9,0,12,0.13
2013-7-29,83.2,73.5,65.0,70.9,64.2,55.9,98,75,42,30.09,29.90,8,0,10,0.04
2013-7-30,83.0,73.7,63.1,65.4,61.6,56.2,90,68,44,30.16,30.08,6,0,10,0.00
2013-7-31,81.6,73.8,64.8,69.7,65.5,62.6,98,77,56,30.09,29.97,3,0,8,0.00
2013-8-1,74.7,71.8,69.6,74.1,70.2,66.3,99,95,81,29.97,29.78,7,1,12,1.19
2013-8-2,86.3,76.9,68.9,71.7,68.3,60.0,98,78,42,29.90,29.77,9,0,12,0.01
2013-8-3,82.8,74.7,69.9,72.1,67.8,64.4,94,80,57,29.91,29.86,5,0,7,0.02
2013-8-4,80.9,74.0,68.4,68.7,63.1,57.2,97,71,47,29.94,29.82,8,1,13,0.02
2013-8-5,80.7,72.0,63.2,61.8,58.1,50.8,89,63,39,30.04,29.94,6,1,7,0.00
2013-8-6,74.0,69.4,66.9,68.2,65.3,59.8,97,87,71,30.04,29.96,4,1,13,0.05
2013-8-7,84.0,74.4,67.4,73.2,69.3,65.1,99,85,66,30.03,29.96,5,1,14,0.11
2013-8-8,86.1,79.0,74.7,75.9,73.3,71.0,91,83,69,30.00,29.93,8,1,11,0.00
2013-8-9,91.6,81.8,74.7,78.3,75.4,72.6,96,82,62,29.94,29.77,12,1,13,0.07
2013-8-10,82.8,77.6,67.6,74.3,68.6,58.5,93,75,45,30.02,29.87,5,0,9,0.00
2013-8-11,82.0,72.1,65.3,73.3,68.3,62.3,98,88,67,30.05,29.99,3,0,5,0.01
2013-8-12,87.6,78.5,69.6,76.2,72.2,68.7,99,82,57,29.97,29.86,4,0,8,0.00
2013-8-13,83.0,78.2,72.5,76.9,72.0,67.4,95,82,62,29.86,29.69,5,1,16,0.01
2013-8-14,74.9,69.8,65.0,70.9,57.3,50.6,97,66,49,30.02,29.72,6,2,17,0.02
2013-8-15,77.2,67.9,59.0,59.7,55.4,49.8,88,66,41,30.12,30.02,3,0,10,0.00
2013-8-16,78.1,67.3,55.0,66.3,56.8,51.3,100,73,41,30.14,30.07,4,0,11,0.00
2013-8-17,79.2,70.1,60.7,64.5,61.5,58.9,96,75,52,30.19,30.12,8,2,14,0.00
2013-8-18,70.4,67.4,62.9,66.4,64.2,61.2,98,90,77,30.15,30.08,8,1,13,0.23
2013-8-19,74.4,68.2,62.9,68.3,65.8,62.3,100,92,79,30.12,30.02,6,0,7,0.00
2013-8-20,83.8,73.9,65.0,73.8,69.1,64.6,100,86,65,30.11,30.03,2,0,7,0.00
2013-8-21,88.0,78.6,70.1,75.3,72.0,68.9,100,82,54,30.14,30.03,2,0,11,0.00
2013-8-22,87.6,77.8,70.4,75.4,71.9,69.2,100,83,58,30.05,29.87,4,1,11,0.00
2013-8-23,79.8,75.2,69.8,71.6,67.8,60.8,89,78,68,30.03,29.86,6,0,10,0.00
2013-8-24,82.2,71.7,62.0,66.3,63.2,60.0,98,76,49,30.27,30.04,8,1,11,0.00
2013-8-25,80.3,69.3,58.0,66.0,60.1,54.8,100,75,43,30.36,30.22,5,0,7,0.00
2013-8-26,84.3,70.8,59.8,67.6,62.0,57.2,93,76,51,30.25,29.99,7,0,12,0.00
2013-8-27,88.2,78.3,70.6,74.0,69.6,64.5,90,76,58,29.95,29.81,3,0,11,0.00
2013-8-28,85.5,76.5,72.1,75.7,72.6,70.1,97,88,62,29.85,29.76,4,0,10,0.00
2013-8-29,83.6,75.6,68.9,74.1,70.3,65.0,97,84,66,29.97,29.76,7,2,12,0.00
2013-8-30,84.0,73.9,64.2,71.9,68.4,63.3,100,84,65,29.99,29.86,3,0,10,0.00
2013-8-31,87.2,79.2,70.8,74.5,71.9,69.4,96,79,62,29.88,29.76,6,1,16,0.00
2013-9-1,89.5,81.8,73.0,76.1,73.5,70.2,94,77,59,29.80,29.71,5,0,11,0.00
2013-9-2,87.6,79.5,74.2,74.8,73.2,71.1,93,82,63,29.75,29.67,8,0,11,0.00
2013-9-3,84.9,78.2,71.1,74.1,69.5,60.4,97,77,48,29.87,29.67,6,1,11,0.00
2013-9-4,81.1,72.0,62.7,62.3,60.1,57.6,86,67,49,30.01,29.88,6,1,10,0.00
2013-9-5,84.0,74.1,62.9,66.6,62.8,54.8,97,70,51,30.05,29.93,11,1,14,0.00
2013-9-6,75.4,67.4,58.4,58.6,54.2,51.0,82,63,47,30.17,30.05,8,1,10,0.00
2013-9-7,80.3,68.1,54.4,62.2,58.4,53.0,99,73,48,30.08,29.88,6,0,8,0.00
2013-9-8,86.7,75.0,66.0,68.6,65.2,61.7,96,73,52,29.97,29.80,7,0,10,0.00
2013-9-9,79.6,70.8,62.0,67.5,61.0,51.8,94,72,55,30.12,29.97,8,1,12,0.00
2013-9-10,88.8,75.9,68.6,74.5,70.9,67.1,100,86,61,30.13,30.04,7,0,11,0.00
2013-9-11,91.8,83.6,72.8,75.1,72.4,70.5,94,71,51,30.09,29.97,8,1,13,0.00
2013-9-12,90.1,77.7,69.8,73.9,71.5,68.4,98,83,50,29.96,29.68,14,1,16,0.00
2013-9-13,77.9,72.4,67.4,71.2,62.4,52.5,99,73,44,29.83,29.62,12,1,16,0.00
2013-9-14,68.9,63.2,56.0,56.0,51.8,49.3,83,67,52,30.10,29.83,10,1,13,0.00
2013-9-15,74.7,58.5,49.6,58.0,52.0,48.2,96,81,50,30.18,30.10,4,0,11,0.00
2013-9-16,73.0,67.6,62.0,64.7,60.2,53.9,90,78,59,30.15,29.99,7,0,14,0.00
2013-9-17,67.3,59.4,51.3,54.3,47.3,39.3,82,66,37,30.34,30.15,10,2,16,0.00
2013-9-18,69.1,57.7,46.2,54.2,50.1,44.6,98,78,54,30.29,30.14,6,0,9,0.00
2013-9-19,73.9,63.0,50.5,59.1,54.2,48.8,97,75,53,30.15,30.03,6,0,11,0.00
2013-9-20,78.8,66.4,53.8,63.8,58.0,53.1,100,77,48,30.04,29.92,6,0,10,0.00
2013-9-21,79.4,65.7,57.6,69.7,61.5,55.9,100,88,52,29.94,29.65,13,1,16,0.00
2013-9-22,73.9,67.0,59.9,65.3,58.4,51.0,97,76,46,29.86,29.64,20,2,20,0.00
2013-9-23,64.7,58.0,49.5,52.0,47.1,43.8,93,68,52,30.01,29.86,10,1,14,0.00
2013-9-24,68.8,57.6,48.3,53.0,49.0,44.6,95,74,50,30.03,29.88,10,1,12,0.00
2013-9-25,72.5,60.1,50.8,56.8,52.1,44.5,100,77,39,29.91,29.81,7,0,8,0.00
2013-9-26,73.7,64.5,56.3,60.8,56.0,50.6,97,76,46,29.99,29.85,7,1,10,0.00
2013-9-27,70.9,63.2,55.1,58.7,55.5,52.3,98,78,55,30.17,30.01,5,1,11,0.00
2013-9-28,72.3,63.3,55.7,57.9,54.9,52.1,95,76,52,30.23,30.14,5,2,14,0.00
2013-9-29,73.9,63.2,55.6,60.5,54.7,50.4,98,76,49,30.14,29.99,8,1,10,0.00
2013-9-30,73.7,61.8,51.3,56.9,53.4,50.2,98,76,48,30.03,29.93,7,0,10,0.00
2013-10-1,78.5,65.0,51.7,63.9,58.0,50.3,100,80,53,30.01,29.91,6,0,10,0.00
2013-10-2,82.6,70.0,59.5,65.8,62.0,58.9,100,78,50,30.01,29.93,4,1,11,0.00
2013-10-3,83.2,73.0,60.5,70.1,64.3,59.9,99,76,55,30.05,29.98,4,0,7,0.00
2013-10-4,84.1,71.3,64.3,69.2,65.6,62.9,100,84,49,30.02,29.94,3,0,8,0.00
2013-10-5,85.3,71.8,64.7,70.0,66.4,63.4,100,85,54,30.02,29.95,5,0,8,0.00
2013-10-6,87.8,76.6,69.3,70.2,68.4,65.9,97,78,51,29.98,29.90,7,1,12,0.14
2013-10-7,81.8,63.3,0.0,72.0,59.9,0.0,97,78,66,29.97,29.76,20,2,21,0.40
2013-10-8,63.2,60.6,56.3,51.7,48.9,47.0,73,65,59,30.20,29.98,10,3,13,0.00
2013-10-9,61.8,58.8,56.5,56.4,52.8,48.7,94,81,62,30.20,30.08,8,4,12,0.19
2013-10-10,61.6,59.4,56.3,61.2,58.7,54.6,99,98,94,30.08,29.85,12,2,16,0.79
2013-10-11,66.8,64.0,61.6,66.3,63.5,61.0,100,98,96,29.89,29.80,11,2,12,0.62
2013-10-12,64.7,63.3,62.1,64.2,62.4,61.3,99,97,93,30.05,29.87,10,3,16,0.16
2013-10-13,64.5,63.1,62.0,63.3,60.5,57.7,98,92,80,30.19,30.05,17,5,19,0.04
2013-10-14,67.6,60.1,55.6,59.2,55.8,53.3,94,86,69,30.25,30.16,7,1,10,0.00
2013-10-15,70.3,60.7,51.6,59.9,55.6,50.8,98,84,66,30.17,30.01,6,1,10,0.00
2013-10-16,69.3,62.8,59.3,63.3,60.1,57.0,100,91,77,30.01,29.87,5,0,6,0.00
2013-10-17,76.5,66.2,62.6,66.0,63.6,62.1,100,92,66,29.88,29.76,7,0,10,0.00
2013-10-18,69.1,60.0,48.8,63.7,48.1,40.2,93,66,50,29.96,29.72,8,2,25,0.00
2013-10-19,62.4,57.0,48.8,61.8,53.7,46.3,99,89,71,29.95,29.74,5,0,11,0.02
2013-10-20,61.5,55.2,44.3,56.8,42.9,37.7,92,64,43,30.05,29.78,14,2,22,0.01
2013-10-21,66.8,51.5,40.9,54.9,45.0,40.4,100,81,42,30.11,29.93,7,0,12,0.00
2013-10-22,65.2,57.5,50.8,56.9,51.6,47.0,94,81,63,29.93,29.75,7,0,7,0.01
2013-10-23,56.6,51.1,44.9,47.9,43.4,37.8,95,76,56,29.81,29.58,13,1,20,0.27
2013-10-24,53.9,48.6,45.2,40.8,35.0,29.8,72,60,42,30.07,29.81,16,3,19,0.00
2013-10-25,54.7,48.6,43.5,38.2,35.6,32.7,73,61,48,30.26,30.06,14,3,16,0.00
2013-10-26,58.0,45.5,32.9,43.7,34.5,30.4,98,68,37,30.25,29.90,18,1,18,0.00
2013-10-27,58.7,51.7,41.2,42.8,39.5,35.6,92,64,50,30.09,29.89,7,1,14,0.00
2013-10-28,63.9,50.9,40.1,51.6,44.2,38.5,98,79,48,30.21,30.08,5,0,8,0.00
2013-10-29,63.4,52.6,42.5,52.4,46.9,41.4,98,82,66,30.30,30.21,5,0,7,0.00
2013-10-30,62.6,55.8,49.5,58.7,53.8,48.8,100,93,77,30.27,30.10,3,0,7,0.04
2013-10-31,69.4,62.1,52.0,64.2,58.5,51.2,100,89,73,30.14,29.80,10,1,11,0.02
2013-11-1,69.6,67.2,64.3,65.9,63.7,62.1,98,89,82,29.78,29.57,8,1,18,0.04
2013-11-2,69.6,61.3,54.8,63.6,53.2,42.8,99,77,44,29.80,29.57,9,1,14,0.02
2013-11-3,55.1,51.3,40.9,45.7,38.2,29.3,78,61,42,30.38,29.80,12,2,16,0.00
2013-11-4,47.4,41.0,33.4,32.1,27.2,23.4,70,58,43,30.56,30.36,7,1,13,0.00
2013-11-5,60.9,50.3,39.8,48.9,43.2,28.0,94,78,58,30.55,30.41,4,0,7,0.00
2013-11-6,68.4,58.9,49.8,57.8,50.8,45.8,94,76,54,30.42,30.03,7,0,11,0.00
2013-11-7,65.2,58.1,49.6,62.6,53.1,33.2,99,84,53,30.05,29.76,17,2,26,0.05
2013-11-8,52.0,46.9,39.1,34.2,29.9,27.0,69,52,39,30.25,29.97,17,3,26,0.00
2013-11-9,54.2,46.2,31.8,39.5,33.4,28.7,92,62,41,30.31,29.99,10,1,12,0.00
2013-11-10,64.5,51.1,37.9,42.1,35.9,31.0,86,58,32,30.15,29.87,14,3,22,0.00
2013-11-11,56.0,49.2,45.1,41.9,35.7,30.8,77,60,41,30.25,29.98,10,1,15,0.00
2013-11-12,51.4,43.2,36.5,41.1,28.4,16.8,74,56,42,30.31,29.91,11,2,16,0.00
2013-11-13,42.6,36.6,29.1,24.1,22.3,17.5,77,57,43,30.40,30.30,12,1,18,0.00
2013-11-14,55.4,40.7,26.3,36.9,27.1,19.9,88,63,27,30.35,30.19,7,0,10,0.00
2013-11-15,55.7,44.6,32.5,43.1,33.9,29.0,90,68,43,30.24,30.15,5,0,8,0.00
2013-11-16,52.3,49.6,46.7,52.0,49.0,40.5,100,98,87,30.26,30.17,2,0,5,0.48
2013-11-17,68.1,57.2,48.8,59.8,54.9,48.6,100,92,71,30.19,29.75,8,1,13,0.00
2013-11-18,68.6,59.8,52.5,63.2,48.2,33.0,100,70,35,29.84,29.65,13,1,22,0.26
2013-11-19,52.3,46.2,39.2,36.6,31.1,27.2,63,55,48,30.29,29.84,12,2,20,0.00
2013-11-20,46.1,39.5,34.4,33.3,29.0,24.4,82,66,52,30.50,30.29,10,2,11,0.00
2013-11-21,51.9,42.1,35.3,44.0,37.7,31.5,97,84,73,30.50,30.33,3,0,7,0.00
2013-11-22,62.0,53.2,43.1,55.2,50.7,42.3,99,92,74,30.32,29.92,6,0,12,0.08
2013-11-23,55.1,46.8,36.2,54.8,34.0,20.4,99,62,37,30.08,29.92,18,3,25,0.00
2013-11-24,35.9,29.9,27.2,21.3,12.3,7.8,57,48,38,30.45,30.07,20,6,31,0.00
2013-11-25,36.2,30.4,25.6,21.0,15.8,10.9,68,55,36,30.53,30.33,11,1,14,0.00
2013-11-26,61.8,41.7,35.6,61.2,34.7,17.1,100,78,46,30.32,29.50,13,2,27,0.65
2013-11-27,61.8,42.7,32.5,61.5,39.2,19.0,100,88,56,29.94,29.41,20,6,30,0.85
2013-11-28,36.8,32.0,26.6,22.5,18.4,15.7,72,57,43,30.44,29.96,17,3,22,0.00
2013-11-29,41.6,34.3,24.1,29.1,23.8,21.1,95,66,47,30.67,30.42,8,0,11,0.00
2013-11-30,39.2,33.0,27.3,30.0,24.9,20.3,91,72,60,30.66,30.33,5,1,7,0.00
2013-12-1,45.8,34.8,25.3,37.8,30.2,24.4,99,84,61,30.32,29.97,4,0,6,0.00
2013-12-2,50.2,40.4,29.7,39.1,35.7,28.3,98,84,59,29.97,29.81,3,0,5,0.00
2013-12-3,53.9,45.4,40.8,39.7,37.6,35.5,91,75,51,29.95,29.81,3,0,5,0.00
2013-12-4,54.1,49.8,43.2,52.1,46.1,37.7,96,87,77,30.04,29.94,7,0,10,0.00
2013-12-5,60.1,54.9,47.9,59.5,54.2,47.2,100,98,91,30.04,29.91,7,1,11,0.00
2013-12-6,63.4,51.9,41.1,62.3,51.5,40.8,100,99,92,30.08,29.85,13,1,17,0.09
2013-12-7,43.2,38.6,33.5,40.8,33.8,26.1,99,83,66,30.47,30.02,5,0,13,0.32
2013-12-8,33.4,31.3,28.8,32.8,27.4,22.5,99,86,69,30.51,30.21,10,1,11,13.69
2013-12-9,38.3,35.3,32.7,38.2,35.0,32.5,100,99,98,30.20,29.98,6,0,7,29.77
2013-12-10,37.3,35.1,29.7,35.7,32.7,24.0,99,91,67,30.18,29.89,8,1,17,0.29
2013-12-11,41.3,32.6,26.4,26.8,24.5,20.7,94,73,48,30.37,30.18,7,0,11,0.00
2013-12-12,33.8,28.5,22.7,28.7,18.1,11.4,97,66,44,30.37,30.19,10,1,14,0.00
2013-12-13,42.1,33.5,24.2,27.8,20.3,16.2,84,60,36,30.26,30.17,10,1,14,0.00
2013-12-14,55.6,39.3,31.8,55.6,35.3,27.3,100,86,68,30.27,29.60,8,1,18,0.58
2013-12-15,47.7,39.9,29.4,40.3,34.4,24.3,100,82,61,29.90,29.56,12,3,20,0.00
2013-12-16,38.6,33.7,28.8,28.9,24.3,20.5,86,68,57,30.16,29.90,7,0,14,0.00
2013-12-17,45.4,37.0,32.5,38.7,32.8,23.7,97,85,69,30.12,29.88,11,1,12,0.09
2013-12-18,38.9,33.5,27.5,31.9,27.2,22.4,98,79,52,30.18,29.91,13,2,20,0.15
2013-12-19,56.0,42.8,27.3,34.1,30.3,24.5,93,64,40,30.17,30.03,9,1,11,0.00
2013-12-20,58.9,53.0,47.0,52.4,42.2,32.1,85,67,51,30.08,29.96,7,1,10,0.00
2013-12-21,66.9,59.1,52.5,57.9,52.4,48.4,94,79,63,29.99,29.89,10,2,18,0.00
2013-12-22,72.1,62.0,58.0,65.5,59.8,56.3,98,93,78,29.99,29.84,12,2,17,0.38
2013-12-23,63.1,54.9,41.6,63.1,53.1,32.5,100,94,70,30.14,29.88,7,1,17,0.26
2013-12-24,41.5,36.9,27.0,32.8,24.3,11.2,71,60,44,30.39,30.10,19,3,25,0.00
2013-12-25,31.2,26.6,22.5,19.1,14.8,12.2,82,61,47,30.51,30.36,8,1,17,0.00
2013-12-26,42.9,30.8,21.1,28.8,23.4,18.6,93,76,45,30.36,30.17,7,0,11,0.00
2013-12-27,47.3,35.1,25.4,30.8,25.2,19.1,91,69,38,30.39,30.27,6,0,7,0.00
2013-12-28,36.9,36.9,36.9,30.7,30.7,30.7,78,78,78,30.29,30.29,0,0,0,0.00
2013-12-29,57.0,46.9,42.2,57.0,43.3,32.6,100,88,61,30.08,29.44,13,2,18,0.92
2013-12-30,44.5,44.5,44.5,41.5,41.5,41.5,89,89,89,30.14,29.78,1,1,0,0.00
2013-12-31,44.5,44.2,33.7,41.5,38.4,18.0,89,81,52,30.30,30.07,10,2,13,0.00
2014-1-1,45.2,36.3,33.7,34.5,22.0,18.0,79,56,49,30.40,30.16,10,0,12,0.00
2014-1-2,41.6,35.2,30.9,37.2,33.9,30.1,99,95,81,30.09,29.50,6,1,10,0.11